createdAt,value
2023-01-01T00:00:44.708Z,11.19
2023-01-01T00:02:07.339Z,9.39
2023-01-01T00:03:09.403Z,8.34
2023-01-01T00:04:14.643Z,8.58
2023-01-01T00:05:16.497Z,8.65
2023-01-01T00:06:18.439Z,8.97
2023-01-01T00:07:20.231Z,8.20
2023-01-01T00:08:21.980Z,8.94
2023-01-01T00:09:42.438Z,8.65
2023-01-01T00:10:44.238Z,9.74
2023-01-01T00:11:46.212Z,9.06
2023-01-01T00:12:47.964Z,10.57
2023-01-01T00:13:49.887Z,10.12
2023-01-01T00:14:51.919Z,8.71
2023-01-01T00:15:53.665Z,11.77
2023-01-01T00:16:56.457Z,16.97
2023-01-01T00:17:58.545Z,13.23
2023-01-01T00:19:00.351Z,10.77
2023-01-01T00:20:02.429Z,10.00
2023-01-01T00:21:08.087Z,8.56
2023-01-01T00:22:52.133Z,9.53
2023-01-01T00:23:32.062Z,8.74
2023-01-01T00:24:33.900Z,8.83
2023-01-01T00:25:35.813Z,8.64
2023-01-01T00:26:38.091Z,9.12
2023-01-01T00:27:40.542Z,8.05
2023-01-01T00:28:44.294Z,7.58
2023-01-01T00:29:46.127Z,8.65
2023-01-01T00:30:48.243Z,9.96
2023-01-01T00:31:50.056Z,10.52
2023-01-01T00:32:55.197Z,8.40
2023-01-01T00:33:58.743Z,10.70
2023-01-01T00:35:00.532Z,9.42
2023-01-01T00:36:10.167Z,8.41
2023-01-01T00:37:11.843Z,7.28
2023-01-01T00:38:13.659Z,10.00
2023-01-01T00:39:15.510Z,9.64
2023-01-01T00:40:18.613Z,9.58
2023-01-01T00:41:20.827Z,9.01
2023-01-01T00:42:22.946Z,8.38
2023-01-01T00:43:24.718Z,9.10
2023-01-01T00:44:26.498Z,9.84
2023-01-01T00:45:28.428Z,10.11
2023-01-01T00:46:31.064Z,8.72
2023-01-01T00:47:32.857Z,7.84
2023-01-01T00:48:34.893Z,8.94
2023-01-01T00:49:36.742Z,8.52
2023-01-01T00:50:38.720Z,10.14
2023-01-01T00:51:40.561Z,8.47
2023-01-01T00:52:42.332Z,8.29
2023-01-01T00:53:44.092Z,7.06
2023-01-01T00:54:45.833Z,8.58
2023-01-01T00:55:49.940Z,11.50
2023-01-01T00:56:51.713Z,11.24
2023-01-01T00:57:53.453Z,10.81
2023-01-01T00:59:00.602Z,10.49
2023-01-01T01:00:05.976Z,11.00
2023-01-01T01:01:08.205Z,9.85
2023-01-01T01:02:10.215Z,9.58
2023-01-01T01:03:27.982Z,7.78
2023-01-01T01:04:30.427Z,9.58
2023-01-01T01:05:33.296Z,9.24
2023-01-01T01:06:35.712Z,8.58
2023-01-01T01:07:38.793Z,8.10
2023-01-01T01:08:44.628Z,7.15
2023-01-01T01:09:46.408Z,9.02
2023-01-01T01:10:48.210Z,10.21
2023-01-01T01:11:50.359Z,9.49
2023-01-01T01:12:53.111Z,11.04
2023-01-01T01:13:56.850Z,7.32
2023-01-01T01:14:58.763Z,8.34
2023-01-01T01:16:00.742Z,8.40
2023-01-01T01:17:02.948Z,8.85
2023-01-01T01:18:04.831Z,8.61
2023-01-01T01:19:06.641Z,8.49
2023-01-01T01:20:09.378Z,6.64
2023-01-01T01:21:15.323Z,6.88
2023-01-01T01:22:17.780Z,7.86
2023-01-01T01:23:21.793Z,6.76
2023-01-01T01:24:23.580Z,6.87
2023-01-01T01:25:25.616Z,6.95
2023-01-01T01:26:32.924Z,7.33
2023-01-01T01:27:34.738Z,7.69
2023-01-01T01:28:36.656Z,7.39
2023-01-01T01:29:38.480Z,5.90
2023-01-01T01:30:40.391Z,6.13
2023-01-01T01:31:42.201Z,6.54
2023-01-01T01:32:44.183Z,6.61
2023-01-01T01:33:48.112Z,6.35
2023-01-01T01:34:50.182Z,5.99
2023-01-01T01:35:54.736Z,6.60
2023-01-01T01:36:56.791Z,6.70
2023-01-01T01:37:59.527Z,5.74
2023-01-01T01:39:01.363Z,6.07
2023-01-01T01:40:03.434Z,5.81
2023-01-01T01:41:05.865Z,5.91
2023-01-01T01:42:07.685Z,6.69
2023-01-01T01:43:22.066Z,7.58
2023-01-01T01:44:45.566Z,7.26
2023-01-01T01:45:48.304Z,6.53
2023-01-01T01:46:50.371Z,7.40
2023-01-01T01:47:56.715Z,7.03
2023-01-01T01:49:05.210Z,6.97
2023-01-01T01:50:25.532Z,7.08
2023-01-01T01:51:36.857Z,7.04
2023-01-01T01:52:47.632Z,7.85
2023-01-01T01:53:58.111Z,6.41
2023-01-01T01:55:03.364Z,5.97
2023-01-01T01:56:11.972Z,5.52
2023-01-01T01:57:14.556Z,6.28
2023-01-01T01:58:17.387Z,6.56
2023-01-01T01:59:22.603Z,6.20
2023-01-01T02:00:24.606Z,6.86
2023-01-01T02:01:27.472Z,6.14
2023-01-01T02:02:43.461Z,6.27
2023-01-01T02:03:55.507Z,5.81
2023-01-01T02:04:58.342Z,5.86
2023-01-01T02:06:02.507Z,6.14
2023-01-01T02:07:05.971Z,5.75
2023-01-01T02:08:09.872Z,5.78
2023-01-01T02:09:11.810Z,5.75
2023-01-01T02:10:13.629Z,5.92
2023-01-01T02:11:21.639Z,5.97
2023-01-01T02:12:25.078Z,10.36
2023-01-01T02:13:27.379Z,6.26
2023-01-01T02:14:29.145Z,6.30
2023-01-01T02:15:40.825Z,5.88
2023-01-01T02:16:58.497Z,5.18
2023-01-01T02:18:14.653Z,5.71
2023-01-01T02:19:40.727Z,5.96
2023-01-01T02:21:13.226Z,5.90
2023-01-01T02:22:38.872Z,6.06
2023-01-01T02:24:06.678Z,6.37
2023-01-01T02:25:23.485Z,5.40
2023-01-01T02:26:38.807Z,10.63
2023-01-01T02:28:02.625Z,8.41
2023-01-01T02:29:35.146Z,6.62
2023-01-01T02:30:42.052Z,7.42
2023-01-01T02:31:53.069Z,6.34
2023-01-01T02:33:06.726Z,7.00
2023-01-01T02:34:14.993Z,5.73
2023-01-01T02:35:35.311Z,6.98
2023-01-01T02:36:46.558Z,6.20
2023-01-01T02:37:53.645Z,5.42
2023-01-01T02:39:00.340Z,6.90
2023-01-01T02:40:03.091Z,6.34
2023-01-01T02:41:31.119Z,6.57
2023-01-01T02:42:33.749Z,6.01
2023-01-01T02:43:35.856Z,5.81
2023-01-01T02:44:45.083Z,6.26
2023-01-01T02:45:47.416Z,7.91
2023-01-01T02:46:49.297Z,7.97
2023-01-01T02:47:51.298Z,6.84
2023-01-01T02:48:53.559Z,14.52
2023-01-01T02:50:07.782Z,6.29
2023-01-01T02:51:18.186Z,6.01
2023-01-01T02:52:47.099Z,6.34
2023-01-01T02:54:07.600Z,5.57
2023-01-01T02:55:22.594Z,7.45
2023-01-01T02:56:45.639Z,5.61
2023-01-01T02:58:24.372Z,5.67
2023-01-01T02:59:47.764Z,5.52
2023-01-01T03:00:55.132Z,5.19
2023-01-01T03:02:16.211Z,5.40
2023-01-01T03:03:47.346Z,5.08
2023-01-01T03:05:15.530Z,7.90
2023-01-01T03:06:29.814Z,4.76
2023-01-01T03:07:50.532Z,4.34
2023-01-01T03:09:23.764Z,6.82
2023-01-01T03:10:31.487Z,6.96
2023-01-01T03:12:02.896Z,5.78
2023-01-01T03:13:22.990Z,7.65
2023-01-01T03:14:36.381Z,5.92
2023-01-01T03:15:50.785Z,7.98
2023-01-01T03:17:09.779Z,4.50
2023-01-01T03:18:19.487Z,6.32
2023-01-01T03:19:30.600Z,5.57
2023-01-01T03:20:38.355Z,5.61
2023-01-01T03:21:56.091Z,5.96
2023-01-01T03:23:07.178Z,6.00
2023-01-01T03:24:23.168Z,5.51
2023-01-01T03:25:31.547Z,5.43
2023-01-01T03:26:35.561Z,6.31
2023-01-01T03:27:57.386Z,5.05
2023-01-01T03:29:05.014Z,5.23
2023-01-01T03:30:11.910Z,5.98
2023-01-01T03:31:18.954Z,5.24
2023-01-01T03:32:52.681Z,5.79
2023-01-01T03:34:03.920Z,4.65
2023-01-01T03:35:06.331Z,6.57
2023-01-01T03:36:24.677Z,4.81
2023-01-01T03:37:31.935Z,5.14
2023-01-01T03:38:47.739Z,5.80
2023-01-01T03:39:53.563Z,4.68
2023-01-01T03:41:03.990Z,4.43
2023-01-01T03:42:25.775Z,5.40
2023-01-01T03:44:01.488Z,4.64
2023-01-01T03:45:21.516Z,5.03
2023-01-01T03:46:29.544Z,4.80
2023-01-01T03:47:33.031Z,5.12
2023-01-01T03:49:02.257Z,4.06
2023-01-01T03:50:06.494Z,4.47
2023-01-01T03:51:18.644Z,4.75
2023-01-01T03:52:27.659Z,4.33
2023-01-01T03:53:44.116Z,4.51
2023-01-01T03:54:59.269Z,4.43
2023-01-01T03:56:17.937Z,4.63
2023-01-01T03:57:30.131Z,4.65
2023-01-01T03:58:43.652Z,4.47
2023-01-01T03:59:57.992Z,4.32
2023-01-01T04:01:24.883Z,5.01
2023-01-01T04:02:36.974Z,4.64
2023-01-01T04:03:41.532Z,4.37
2023-01-01T04:04:43.872Z,4.61
2023-01-01T04:05:46.042Z,4.34
2023-01-01T04:06:48.106Z,4.46
2023-01-01T04:07:52.802Z,4.33
2023-01-01T04:09:00.191Z,5.07
2023-01-01T04:10:17.018Z,4.37
2023-01-01T04:11:44.161Z,4.54
2023-01-01T04:12:57.917Z,3.95
2023-01-01T04:13:59.601Z,4.46
2023-01-01T04:15:01.291Z,4.46
2023-01-01T04:16:03.895Z,4.16
2023-01-01T04:17:07.766Z,4.12
2023-01-01T04:18:09.497Z,3.95
2023-01-01T04:19:11.208Z,4.15
2023-01-01T04:20:14.010Z,4.33
2023-01-01T04:21:15.795Z,4.14
2023-01-01T04:22:18.139Z,3.96
2023-01-01T04:23:19.879Z,4.48
2023-01-01T04:24:23.056Z,4.11
2023-01-01T04:25:25.087Z,4.08
2023-01-01T04:26:26.784Z,4.19
2023-01-01T04:27:28.911Z,4.32
2023-01-01T04:28:30.661Z,4.51
2023-01-01T04:29:33.721Z,4.46
2023-01-01T04:31:36.200Z,4.56
2023-01-01T04:32:39.172Z,4.27
2023-01-01T04:33:40.962Z,4.28
2023-01-01T04:34:42.731Z,4.07
2023-01-01T04:35:44.517Z,4.08
2023-01-01T04:36:46.555Z,4.21
2023-01-01T04:37:48.406Z,3.89
2023-01-01T04:38:50.211Z,4.20
2023-01-01T04:39:52.677Z,4.02
2023-01-01T04:40:59.835Z,3.90
2023-01-01T04:42:01.797Z,4.10
2023-01-01T04:43:03.542Z,4.10
2023-01-01T04:44:05.388Z,3.95
2023-01-01T04:45:07.922Z,4.05
2023-01-01T04:46:09.999Z,4.23
2023-01-01T04:47:11.864Z,4.19
2023-01-01T04:48:13.843Z,4.07
2023-01-01T04:49:15.565Z,4.02
2023-01-01T04:50:17.373Z,4.40
2023-01-01T04:51:21.351Z,4.29
2023-01-01T04:52:23.248Z,4.19
2023-01-01T04:53:26.260Z,3.71
2023-01-01T04:54:28.051Z,3.81
2023-01-01T04:55:30.100Z,3.99
2023-01-01T04:56:31.851Z,3.85
2023-01-01T04:57:33.776Z,3.84
2023-01-01T04:58:37.451Z,4.16
2023-01-01T04:59:39.217Z,4.06
2023-01-01T05:00:41.269Z,3.70
2023-01-01T05:01:43.553Z,3.92
2023-01-01T05:02:45.494Z,3.99
2023-01-01T05:03:48.491Z,3.60
2023-01-01T05:04:50.279Z,3.84
2023-01-01T05:06:03.301Z,3.40
2023-01-01T05:07:05.008Z,3.76
2023-01-01T05:08:06.696Z,3.67
2023-01-01T05:09:11.890Z,3.83
2023-01-01T05:10:13.643Z,4.19
2023-01-01T05:11:20.997Z,3.94
2023-01-01T05:12:22.745Z,3.74
2023-01-01T05:13:24.456Z,3.69
2023-01-01T05:14:26.161Z,3.55
2023-01-01T05:15:27.864Z,3.58
2023-01-01T05:16:35.643Z,3.86
2023-01-01T05:17:37.452Z,3.76
2023-01-01T05:18:40.334Z,3.60
2023-01-01T05:19:42.196Z,3.80
2023-01-01T05:20:43.928Z,3.79
2023-01-01T05:21:46.435Z,3.82
2023-01-01T05:22:48.146Z,3.50
2023-01-01T05:23:54.126Z,3.84
2023-01-01T05:24:55.872Z,3.76
2023-01-01T05:25:57.881Z,3.71
2023-01-01T05:26:59.867Z,3.72
2023-01-01T05:28:01.674Z,3.62
2023-01-01T05:29:06.873Z,3.54
2023-01-01T05:30:13.649Z,3.62
2023-01-01T05:31:21.630Z,3.40
2023-01-01T05:32:23.434Z,3.40
2023-01-01T05:33:25.201Z,3.44
2023-01-01T05:34:27.404Z,3.66
2023-01-01T05:35:29.118Z,3.86
2023-01-01T05:36:34.201Z,3.61
2023-01-01T05:37:36.008Z,3.45
2023-01-01T05:38:37.783Z,3.49
2023-01-01T05:39:39.703Z,3.51
2023-01-01T05:40:41.528Z,3.54
2023-01-01T05:41:43.331Z,3.29
2023-01-01T05:42:47.301Z,3.55
2023-01-01T05:43:50.840Z,3.64
2023-01-01T05:44:52.668Z,3.33
2023-01-01T05:46:10.205Z,3.47
2023-01-01T05:47:12.322Z,3.77
2023-01-01T05:48:14.049Z,3.82
2023-01-01T05:49:16.731Z,3.65
2023-01-01T05:50:18.536Z,3.83
2023-01-01T05:51:26.202Z,3.77
2023-01-01T05:52:27.895Z,3.87
2023-01-01T05:53:31.111Z,3.49
2023-01-01T05:54:32.923Z,3.52
2023-01-01T05:55:35.200Z,3.96
2023-01-01T05:56:37.075Z,3.59
2023-01-01T05:57:38.797Z,3.74
2023-01-01T05:58:41.797Z,3.52
2023-01-01T05:59:43.557Z,3.83
2023-01-01T06:00:45.455Z,3.38
2023-01-01T06:01:47.186Z,3.59
2023-01-01T06:02:52.135Z,3.21
2023-01-01T06:03:56.016Z,3.55
2023-01-01T06:04:57.833Z,4.10
2023-01-01T06:06:07.450Z,3.77
2023-01-01T06:07:09.155Z,3.54
2023-01-01T06:08:11.300Z,3.35
2023-01-01T06:09:13.120Z,3.62
2023-01-01T06:10:14.873Z,3.36
2023-01-01T06:11:17.472Z,3.75
2023-01-01T06:12:19.302Z,3.38
2023-01-01T06:13:21.048Z,3.70
2023-01-01T06:14:22.835Z,3.85
2023-01-01T06:15:26.170Z,3.75
2023-01-01T06:16:30.095Z,3.76
2023-01-01T06:17:33.624Z,3.61
2023-01-01T06:18:35.971Z,3.58
2023-01-01T06:19:37.690Z,3.89
2023-01-01T06:20:39.416Z,3.51
2023-01-01T06:21:41.312Z,3.96
2023-01-01T06:22:43.167Z,3.60
2023-01-01T06:23:45.795Z,3.55
2023-01-01T06:24:47.494Z,3.63
2023-01-01T06:25:49.265Z,3.93
2023-01-01T06:26:51.182Z,3.81
2023-01-01T06:27:54.861Z,3.69
2023-01-01T06:28:58.117Z,3.54
2023-01-01T06:30:00.242Z,3.41
2023-01-01T06:31:08.254Z,3.67
2023-01-01T06:32:10.275Z,3.63
2023-01-01T06:33:11.983Z,3.70
2023-01-01T06:34:13.789Z,3.63
2023-01-01T06:35:15.758Z,3.56
2023-01-01T06:36:20.437Z,3.33
2023-01-01T06:37:22.299Z,3.76
2023-01-01T06:38:24.530Z,3.86
2023-01-01T06:39:26.286Z,3.91
2023-01-01T06:40:28.108Z,3.54
2023-01-01T06:41:31.546Z,3.43
2023-01-01T06:42:34.072Z,3.58
2023-01-01T06:43:36.834Z,3.66
2023-01-01T06:44:38.691Z,3.65
2023-01-01T06:45:40.425Z,3.62
2023-01-01T06:46:42.201Z,3.89
2023-01-01T06:47:44.063Z,3.44
2023-01-01T06:48:48.250Z,3.61
2023-01-01T06:49:50.002Z,3.56
2023-01-01T06:50:51.730Z,3.42
2023-01-01T06:51:53.707Z,3.82
2023-01-01T06:52:55.457Z,4.31
2023-01-01T06:54:02.586Z,3.62
2023-01-01T06:55:04.663Z,3.69
2023-01-01T06:56:07.087Z,3.71
2023-01-01T06:57:08.876Z,3.76
2023-01-01T06:58:10.668Z,4.00
2023-01-01T06:59:13.037Z,3.89
2023-01-01T07:00:15.715Z,3.70
2023-01-01T07:01:23.977Z,3.45
2023-01-01T07:02:26.111Z,3.73
2023-01-01T07:03:28.051Z,3.95
2023-01-01T07:04:29.821Z,3.65
2023-01-01T07:05:31.604Z,3.89
2023-01-01T07:06:35.422Z,3.92
2023-01-01T07:07:37.335Z,3.67
2023-01-01T07:08:39.002Z,3.87
2023-01-01T07:09:40.699Z,3.68
2023-01-01T07:10:42.472Z,3.68
2023-01-01T07:11:44.324Z,3.47
2023-01-01T07:12:46.019Z,3.67
2023-01-01T07:13:48.199Z,3.77
2023-01-01T07:14:49.935Z,3.84
2023-01-01T07:15:51.705Z,3.99
2023-01-01T07:16:53.496Z,3.36
2023-01-01T07:17:55.359Z,4.53
2023-01-01T07:18:57.665Z,3.87
2023-01-01T07:20:00.645Z,4.42
2023-01-01T07:21:04.629Z,3.49
2023-01-01T07:22:06.384Z,4.53
2023-01-01T07:23:10.816Z,4.28
2023-01-01T07:24:15.573Z,4.35
2023-01-01T07:25:17.267Z,3.13
2023-01-01T07:26:19.366Z,3.88
2023-01-01T07:27:21.226Z,3.80
2023-01-01T07:28:25.231Z,4.87
2023-01-01T07:29:27.016Z,3.78
2023-01-01T07:30:28.846Z,3.72
2023-01-01T07:31:30.767Z,3.84
2023-01-01T07:32:32.570Z,4.00
2023-01-01T07:33:34.557Z,3.90
2023-01-01T07:34:37.241Z,4.05
2023-01-01T07:35:39.796Z,3.71
2023-01-01T07:36:43.287Z,3.40
2023-01-01T07:37:45.652Z,3.69
2023-01-01T07:38:47.584Z,3.74
2023-01-01T07:39:49.698Z,3.66
2023-01-01T07:40:51.473Z,4.26
2023-01-01T07:41:53.204Z,3.88
2023-01-01T07:42:55.176Z,3.76
2023-01-01T07:43:57.002Z,3.32
2023-01-01T07:44:59.032Z,3.57
2023-01-01T07:46:01.951Z,3.05
2023-01-01T07:47:25.560Z,3.21
2023-01-01T07:48:28.377Z,3.57
2023-01-01T07:49:30.176Z,3.33
2023-01-01T07:50:33.059Z,3.46
2023-01-01T07:51:35.027Z,3.16
2023-01-01T07:52:37.064Z,3.34
2023-01-01T07:53:39.236Z,5.41
2023-01-01T07:54:40.949Z,4.19
2023-01-01T07:55:43.405Z,3.53
2023-01-01T07:56:45.181Z,3.42
2023-01-01T07:57:47.832Z,3.32
2023-01-01T07:58:50.358Z,3.65
2023-01-01T07:59:52.245Z,3.82
2023-01-01T08:00:55.518Z,3.74
2023-01-01T08:01:57.556Z,3.99
2023-01-01T08:02:59.724Z,3.89
2023-01-01T08:04:01.908Z,3.83
2023-01-01T08:05:04.458Z,5.02
2023-01-01T08:06:12.279Z,4.02
2023-01-01T08:07:14.044Z,4.29
2023-01-01T08:08:15.749Z,4.07
2023-01-01T08:09:17.746Z,3.40
2023-01-01T08:10:22.702Z,3.39
2023-01-01T08:11:24.668Z,3.72
2023-01-01T08:12:27.090Z,3.50
2023-01-01T08:13:28.892Z,3.69
2023-01-01T08:14:30.657Z,3.95
2023-01-01T08:15:33.296Z,3.37
2023-01-01T08:16:35.158Z,3.73
2023-01-01T08:17:44.289Z,4.31
2023-01-01T08:18:48.095Z,4.17
2023-01-01T08:19:50.956Z,3.61
2023-01-01T08:20:53.209Z,3.86
2023-01-01T08:21:54.989Z,4.71
2023-01-01T08:23:00.138Z,5.72
2023-01-01T08:24:05.506Z,3.58
2023-01-01T08:25:07.671Z,3.47
2023-01-01T08:26:16.489Z,3.34
2023-01-01T08:27:18.296Z,4.49
2023-01-01T08:28:20.322Z,3.73
2023-01-01T08:29:22.355Z,3.33
2023-01-01T08:30:24.563Z,3.42
2023-01-01T08:31:26.554Z,3.54
2023-01-01T08:32:28.462Z,3.85
2023-01-01T08:33:30.371Z,4.02
2023-01-01T08:34:32.240Z,3.82
2023-01-01T08:35:37.913Z,3.65
2023-01-01T08:36:41.151Z,4.07
2023-01-01T08:37:42.926Z,3.93
2023-01-01T08:38:44.629Z,4.20
2023-01-01T08:39:52.756Z,3.77
2023-01-01T08:40:54.654Z,3.66
2023-01-01T08:41:57.069Z,3.78
2023-01-01T08:42:59.198Z,3.82
2023-01-01T08:44:01.408Z,3.98
2023-01-01T08:45:03.578Z,3.93
2023-01-01T08:46:05.453Z,4.01
2023-01-01T08:47:15.331Z,4.01
2023-01-01T08:48:17.686Z,5.18
2023-01-01T08:49:19.735Z,3.89
2023-01-01T08:50:21.687Z,4.38
2023-01-01T08:51:23.507Z,4.07
2023-01-01T08:52:25.579Z,4.02
2023-01-01T08:53:29.739Z,3.90
2023-01-01T08:54:31.786Z,3.61
2023-01-01T08:55:33.526Z,3.61
2023-01-01T08:56:35.234Z,3.94
2023-01-01T08:57:37.157Z,3.97
2023-01-01T08:58:40.523Z,4.23
2023-01-01T08:59:42.424Z,4.23
2023-01-01T09:00:44.317Z,4.20
2023-01-01T09:01:46.387Z,4.16
2023-01-01T09:02:48.601Z,3.72
2023-01-01T09:03:50.585Z,3.92
2023-01-01T09:04:52.507Z,4.07
2023-01-01T09:05:54.527Z,4.34
2023-01-01T09:06:57.006Z,4.14
2023-01-01T09:07:59.230Z,3.99
2023-01-01T09:09:01.137Z,4.20
2023-01-01T09:10:03.471Z,4.17
2023-01-01T09:11:05.757Z,4.69
2023-01-01T09:12:09.269Z,4.36
2023-01-01T09:13:13.195Z,4.68
2023-01-01T09:14:15.098Z,4.96
2023-01-01T09:15:17.208Z,4.82
2023-01-01T09:16:20.354Z,5.11
2023-01-01T09:17:22.264Z,5.45
2023-01-01T09:18:24.318Z,5.12
2023-01-01T09:19:27.290Z,4.51
2023-01-01T09:20:29.214Z,4.90
2023-01-01T09:21:31.097Z,5.30
2023-01-01T09:22:33.885Z,4.70
2023-01-01T09:23:35.923Z,4.83
2023-01-01T09:24:38.460Z,4.84
2023-01-01T09:25:40.812Z,5.30
2023-01-01T09:26:42.686Z,4.36
2023-01-01T09:27:44.462Z,3.82
2023-01-01T09:28:46.541Z,4.08
2023-01-01T09:29:48.516Z,4.11
2023-01-01T09:30:50.413Z,4.77
2023-01-01T09:31:52.365Z,4.11
2023-01-01T09:32:54.456Z,3.59
2023-01-01T09:33:56.304Z,3.96
2023-01-01T09:34:58.150Z,3.70
2023-01-01T09:36:17.925Z,4.16
2023-01-01T09:37:20.035Z,4.14
2023-01-01T09:38:21.857Z,4.27
2023-01-01T09:39:23.703Z,3.96
2023-01-01T09:40:51.143Z,3.87
2023-01-01T09:42:03.532Z,5.08
2023-01-01T09:43:26.874Z,4.34
2023-01-01T09:44:44.340Z,3.72
2023-01-01T09:45:57.216Z,3.74
2023-01-01T09:47:03.160Z,3.76
2023-01-01T09:48:11.599Z,3.62
2023-01-01T09:49:45.055Z,3.62
2023-01-01T09:50:49.147Z,3.79
2023-01-01T09:51:58.296Z,3.78
2023-01-01T09:53:06.511Z,3.78
2023-01-01T09:54:29.429Z,4.00
2023-01-01T09:55:38.593Z,3.30
2023-01-01T09:56:41.073Z,3.59
2023-01-01T09:57:42.847Z,3.62
2023-01-01T09:58:44.903Z,3.91
2023-01-01T09:59:46.857Z,3.78
2023-01-01T10:00:54.360Z,3.95
2023-01-01T10:02:09.231Z,4.01
2023-01-01T10:03:33.024Z,3.86
2023-01-01T10:05:21.353Z,3.78
2023-01-01T10:06:33.681Z,3.89
2023-01-01T10:07:50.500Z,3.81
2023-01-01T10:08:58.144Z,3.89
2023-01-01T10:10:27.303Z,3.88
2023-01-01T10:11:47.754Z,4.94
2023-01-01T10:13:05.815Z,3.80
2023-01-01T10:14:32.913Z,3.97
2023-01-01T10:15:42.339Z,4.15
2023-01-01T10:16:49.375Z,3.73
2023-01-01T10:17:57.827Z,3.75
2023-01-01T10:19:16.210Z,4.09
2023-01-01T10:20:36.363Z,3.84
2023-01-01T10:21:47.148Z,3.49
2023-01-01T10:22:58.000Z,3.42
2023-01-01T10:24:06.085Z,3.49
2023-01-01T10:25:27.649Z,3.79
2023-01-01T10:26:34.906Z,3.51
2023-01-01T10:27:59.535Z,3.39
2023-01-01T10:29:31.620Z,3.09
2023-01-01T10:30:33.397Z,3.76
2023-01-01T10:31:40.502Z,3.60
2023-01-01T10:32:48.305Z,3.19
2023-01-01T10:33:50.109Z,3.74
2023-01-01T10:34:51.844Z,3.36
2023-01-01T10:35:56.858Z,3.70
2023-01-01T10:37:02.459Z,3.62
2023-01-01T10:38:05.808Z,3.34
2023-01-01T10:39:08.811Z,3.24
2023-01-01T10:40:17.306Z,3.51
2023-01-01T10:41:20.582Z,3.71
2023-01-01T10:42:22.447Z,3.48
2023-01-01T10:43:24.734Z,3.25
2023-01-01T10:44:34.480Z,4.26
2023-01-01T10:45:44.421Z,3.49
2023-01-01T10:46:56.514Z,3.20
2023-01-01T10:48:27.418Z,3.53
2023-01-01T10:49:29.244Z,3.43
2023-01-01T10:50:42.570Z,3.44
2023-01-01T10:51:53.811Z,3.49
2023-01-01T10:52:57.004Z,3.57
2023-01-01T10:54:00.032Z,3.51
2023-01-01T10:55:02.892Z,3.58
2023-01-01T10:56:04.734Z,3.34
2023-01-01T10:57:20.469Z,3.55
2023-01-01T10:58:41.181Z,3.64
2023-01-01T10:59:51.732Z,9.50
2023-01-01T11:01:01.717Z,10.43
2023-01-01T11:02:30.821Z,13.92
2023-01-01T11:03:33.284Z,3.88
2023-01-01T11:04:35.160Z,4.73
2023-01-01T11:05:36.961Z,3.56
2023-01-01T11:06:42.037Z,11.77
2023-01-01T11:07:44.942Z,13.84
2023-01-01T11:08:50.726Z,4.45
2023-01-01T11:10:04.491Z,4.27
2023-01-01T11:11:06.781Z,3.94
2023-01-01T11:12:54.679Z,3.58
2023-01-01T11:13:42.679Z,3.35
2023-01-01T11:14:53.334Z,3.37
2023-01-01T11:15:56.406Z,4.49
2023-01-01T11:16:59.701Z,3.96
2023-01-01T11:18:13.936Z,3.65
2023-01-01T11:19:45.597Z,3.58
2023-01-01T11:20:56.369Z,4.13
2023-01-01T11:21:58.868Z,3.76
2023-01-01T11:23:19.117Z,3.35
2023-01-01T11:24:27.141Z,3.48
2023-01-01T11:25:32.506Z,3.38
2023-01-01T11:26:34.279Z,3.43
2023-01-01T11:27:36.365Z,3.23
2023-01-01T11:28:40.316Z,3.75
2023-01-01T11:29:42.052Z,3.53
2023-01-01T11:31:02.299Z,3.38
2023-01-01T11:32:08.862Z,3.65
2023-01-01T11:33:16.937Z,3.73
2023-01-01T11:34:37.034Z,3.74
2023-01-01T11:35:50.750Z,3.47
2023-01-01T11:37:06.034Z,4.46
2023-01-01T11:38:24.356Z,4.88
2023-01-01T11:39:30.520Z,4.53
2023-01-01T11:40:32.220Z,3.86
2023-01-01T11:41:46.947Z,4.78
2023-01-01T11:42:58.326Z,4.07
2023-01-01T11:44:00.929Z,8.51
2023-01-01T11:45:13.041Z,3.64
2023-01-01T11:46:24.737Z,4.92
2023-01-01T11:47:32.141Z,4.20
2023-01-01T11:48:35.099Z,3.91
2023-01-01T11:49:36.945Z,4.10
2023-01-01T11:50:41.872Z,5.17
2023-01-01T11:51:43.752Z,5.86
2023-01-01T11:52:49.237Z,3.70
2023-01-01T11:53:50.986Z,4.06
2023-01-01T11:54:54.372Z,3.59
2023-01-01T11:56:02.385Z,3.75
2023-01-01T11:57:15.885Z,3.68
2023-01-01T11:58:52.328Z,6.94
2023-01-01T12:00:03.180Z,15.04
2023-01-01T12:01:26.810Z,5.19
2023-01-01T12:02:43.454Z,3.51
2023-01-01T12:04:07.992Z,3.67
2023-01-01T12:05:56.129Z,3.94
2023-01-01T12:07:09.258Z,3.83
2023-01-01T12:08:23.444Z,3.88
2023-01-01T12:10:04.519Z,3.52
2023-01-01T12:11:26.928Z,3.29
2023-01-01T12:12:42.745Z,3.92
2023-01-01T12:13:53.585Z,3.76
2023-01-01T12:15:18.258Z,3.48
2023-01-01T12:16:40.498Z,3.30
2023-01-01T12:18:10.255Z,3.42
2023-01-01T12:19:22.088Z,3.67
2023-01-01T12:20:34.710Z,3.72
2023-01-01T12:21:45.186Z,3.77
2023-01-01T12:22:55.122Z,3.70
2023-01-01T12:23:57.027Z,3.36
2023-01-01T12:25:00.399Z,3.70
2023-01-01T12:26:05.433Z,3.37
2023-01-01T12:27:16.482Z,3.48
2023-01-01T12:28:31.147Z,3.58
2023-01-01T12:29:54.478Z,3.41
2023-01-01T12:31:16.409Z,4.04
2023-01-01T12:32:53.178Z,3.39
2023-01-01T12:34:30.796Z,3.17
2023-01-01T12:35:55.347Z,3.13
2023-01-01T12:37:01.301Z,3.41
2023-01-01T12:38:22.164Z,3.40
2023-01-01T12:39:45.499Z,3.37
2023-01-01T12:41:13.489Z,3.70
2023-01-01T12:42:49.520Z,3.56
2023-01-01T12:44:03.952Z,3.31
2023-01-01T12:45:37.196Z,3.78
2023-01-01T12:46:48.741Z,3.69
2023-01-01T12:48:43.139Z,3.73
2023-01-01T12:49:53.648Z,4.06
2023-01-01T12:51:30.248Z,4.12
2023-01-01T12:53:04.671Z,3.72
2023-01-01T12:54:25.138Z,4.15
2023-01-01T12:55:57.759Z,4.16
2023-01-01T12:57:09.505Z,3.88
2023-01-01T12:58:21.839Z,3.73
2023-01-01T12:59:31.130Z,4.02
2023-01-01T13:00:38.647Z,3.64
2023-01-01T13:01:41.557Z,3.75
2023-01-01T13:02:54.474Z,3.49
2023-01-01T13:04:03.351Z,3.57
2023-01-01T13:05:18.994Z,3.30
2023-01-01T13:06:41.799Z,3.57
2023-01-01T13:07:50.588Z,3.26
2023-01-01T13:09:02.701Z,3.43
2023-01-01T13:10:23.836Z,3.36
2023-01-01T13:11:27.359Z,3.84
2023-01-01T13:12:32.830Z,3.56
2023-01-01T13:13:34.698Z,3.77
2023-01-01T13:14:41.870Z,3.59
2023-01-01T13:15:48.345Z,3.15
2023-01-01T13:16:56.585Z,3.26
2023-01-01T13:17:58.519Z,3.43
2023-01-01T13:19:03.090Z,3.21
2023-01-01T13:20:14.023Z,3.24
2023-01-01T13:21:15.746Z,3.17
2023-01-01T13:22:26.195Z,3.33
2023-01-01T13:23:34.704Z,3.19
2023-01-01T13:24:36.468Z,3.44
2023-01-01T13:25:38.214Z,3.55
2023-01-01T13:26:41.094Z,3.56
2023-01-01T13:27:59.396Z,3.51
2023-01-01T13:29:01.668Z,3.59
2023-01-01T13:30:03.872Z,3.45
2023-01-01T13:31:05.678Z,3.45
2023-01-01T13:32:08.936Z,3.60
2023-01-01T13:33:32.006Z,3.57
2023-01-01T13:34:37.614Z,3.58
2023-01-01T13:35:40.785Z,3.56
2023-01-01T13:36:42.697Z,3.73
2023-01-01T13:37:45.490Z,3.32
2023-01-01T13:38:59.061Z,3.51
2023-01-01T13:40:31.012Z,3.48
2023-01-01T13:41:41.143Z,3.51
2023-01-01T13:42:57.670Z,3.81
2023-01-01T13:44:05.461Z,3.72
2023-01-01T13:45:15.541Z,3.60
2023-01-01T13:46:28.691Z,3.74
2023-01-01T13:48:06.790Z,3.30
2023-01-01T13:49:30.336Z,3.96
2023-01-01T13:50:58.657Z,3.45
2023-01-01T13:52:15.924Z,3.86
2023-01-01T13:54:05.743Z,3.50
2023-01-01T13:55:39.990Z,3.46
2023-01-01T13:57:13.609Z,3.81
2023-01-01T13:58:26.147Z,3.71
2023-01-01T13:59:55.925Z,3.83
2023-01-01T14:01:12.841Z,4.01
2023-01-01T14:02:20.751Z,3.85
2023-01-01T14:03:27.334Z,3.90
2023-01-01T14:04:47.127Z,3.79
2023-01-01T14:05:56.496Z,4.09
2023-01-01T14:07:33.027Z,4.54
2023-01-01T14:08:37.649Z,4.10
2023-01-01T14:09:39.412Z,3.81
2023-01-01T14:10:50.091Z,4.10
2023-01-01T14:11:51.851Z,3.96
2023-01-01T14:12:56.560Z,4.44
2023-01-01T14:13:58.444Z,4.26
2023-01-01T14:15:15.170Z,4.03
2023-01-01T14:16:18.183Z,4.34
2023-01-01T14:17:21.120Z,4.43
2023-01-01T14:18:31.080Z,6.29
2023-01-01T14:19:33.343Z,4.50
2023-01-01T14:20:41.646Z,4.62
2023-01-01T14:21:45.874Z,4.48
2023-01-01T14:22:50.891Z,4.79
2023-01-01T14:24:08.446Z,5.01
2023-01-01T14:25:33.736Z,4.67
2023-01-01T14:26:39.564Z,4.66
2023-01-01T14:27:44.174Z,4.65
2023-01-01T14:28:47.267Z,6.53
2023-01-01T14:29:51.549Z,5.20
2023-01-01T14:30:56.663Z,4.60
2023-01-01T14:32:02.413Z,4.60
2023-01-01T14:33:04.300Z,5.01
2023-01-01T14:34:28.167Z,5.74
2023-01-01T14:35:30.116Z,10.05
2023-01-01T14:36:32.313Z,12.33
2023-01-01T14:37:34.220Z,14.87
2023-01-01T14:38:43.760Z,15.47
2023-01-01T14:39:45.913Z,15.44
2023-01-01T14:40:48.104Z,11.57
2023-01-01T14:41:50.086Z,11.22
2023-01-01T14:42:56.158Z,10.16
2023-01-01T14:44:12.082Z,9.75
2023-01-01T14:45:17.678Z,10.79
2023-01-01T14:46:23.530Z,9.70
2023-01-01T14:47:35.751Z,7.63
2023-01-01T14:48:37.526Z,5.26
2023-01-01T14:49:39.537Z,5.39
2023-01-01T14:50:41.671Z,5.00
2023-01-01T14:51:50.497Z,5.68
2023-01-01T14:52:59.204Z,5.37
2023-01-01T14:54:04.621Z,5.70
2023-01-01T14:55:16.053Z,5.76
2023-01-01T14:56:28.310Z,5.53
2023-01-01T14:57:34.823Z,5.35
2023-01-01T14:58:40.445Z,5.01
2023-01-01T14:59:48.683Z,4.92